createdAt,value
2023-05-19T00:01:37.622Z,101071.69
2023-05-19T00:04:40.717Z,101067.06
2023-05-19T00:07:45.375Z,101061.03
2023-05-19T00:10:48.100Z,101063.22
2023-05-19T00:13:51.186Z,101070.03
2023-05-19T00:16:56.274Z,101065.59
2023-05-19T00:19:58.812Z,101033.06
2023-05-19T00:23:01.667Z,101055.56
2023-05-19T00:26:04.228Z,101068.41
2023-05-19T00:29:06.745Z,101057.16
2023-05-19T00:32:10.260Z,101047.72
2023-05-19T00:35:13.122Z,101062.00
2023-05-19T00:38:15.638Z,101063.59
2023-05-19T00:41:18.337Z,101056.38
2023-05-19T00:44:20.816Z,101040.72
2023-05-19T00:47:23.610Z,101061.19
2023-05-19T00:50:27.439Z,101041.69
2023-05-19T00:53:32.184Z,101042.72
2023-05-19T00:56:35.191Z,101037.69
2023-05-19T00:59:37.764Z,101039.09
2023-05-19T01:02:40.977Z,101060.38
2023-05-19T01:05:47.611Z,101068.00
2023-05-19T01:08:51.822Z,101046.53
2023-05-19T01:11:54.691Z,101046.72
2023-05-19T01:14:59.316Z,101054.19
2023-05-19T01:18:08.297Z,101043.53
2023-05-19T01:21:36.494Z,101030.69
2023-05-19T01:24:45.371Z,101051.34
2023-05-19T01:28:00.824Z,101050.13
2023-05-19T01:31:06.302Z,101035.09
2023-05-19T01:34:12.165Z,101048.94
2023-05-19T01:37:16.400Z,101041.47
2023-05-19T01:40:21.490Z,101029.44
2023-05-19T01:43:26.066Z,101029.84
2023-05-19T01:46:28.645Z,101031.44
2023-05-19T01:49:31.267Z,101016.56
2023-05-19T01:52:33.896Z,101039.22
2023-05-19T01:55:49.718Z,101031.19
2023-05-19T01:59:03.830Z,101030.22
2023-05-19T02:02:26.885Z,101040.66
2023-05-19T02:05:53.637Z,101042.84
2023-05-19T02:09:17.987Z,101048.06
2023-05-19T02:12:28.422Z,101037.22
2023-05-19T02:15:38.758Z,101045.66
2023-05-19T02:18:45.529Z,101032.19
2023-05-19T02:21:48.302Z,101021.34
2023-05-19T02:24:51.884Z,101042.84
2023-05-19T02:27:54.711Z,101039.03
2023-05-19T02:30:57.193Z,101028.19
2023-05-19T02:33:59.800Z,101029.41
2023-05-19T02:37:02.320Z,101042.06
2023-05-19T02:40:05.929Z,101046.69
2023-05-19T02:43:08.455Z,101031.03
2023-05-19T02:46:11.564Z,101035.66
2023-05-19T02:49:14.126Z,101035.06
2023-05-19T02:52:16.692Z,101044.28
2023-05-19T02:55:19.557Z,101050.72
2023-05-19T02:58:22.069Z,101059.59
2023-05-19T03:01:24.640Z,101055.97
2023-05-19T03:04:28.006Z,101038.31
2023-05-19T03:07:30.671Z,101058.78
2023-05-19T03:10:33.422Z,101047.53
2023-05-19T03:13:36.147Z,101052.53
2023-05-19T03:16:41.253Z,101034.47
2023-05-19T03:19:43.902Z,101055.56
2023-05-19T03:22:46.408Z,101044.72
2023-05-19T03:25:48.901Z,101045.13
2023-05-19T03:28:51.425Z,101043.53
2023-05-19T03:31:54.058Z,101055.19
2023-05-19T03:34:56.586Z,101049.97
2023-05-19T03:37:59.209Z,101053.00
2023-05-19T03:41:01.798Z,101048.38
2023-05-19T03:44:04.412Z,101060.41
2023-05-19T03:47:07.075Z,101036.72
2023-05-19T03:50:29.234Z,101041.94
2023-05-19T03:53:38.229Z,101042.34
2023-05-19T03:56:43.237Z,101037.75
2023-05-19T03:59:46.064Z,101061.00
2023-05-19T04:02:48.794Z,101065.44
2023-05-19T04:05:52.032Z,101046.59
2023-05-19T04:08:54.649Z,101066.44
2023-05-19T04:11:57.100Z,101064.22
2023-05-19T04:15:00.601Z,101053.19
2023-05-19T04:18:03.064Z,101052.00
2023-05-19T04:21:06.061Z,101073.09
2023-05-19T04:24:09.046Z,101073.66
2023-05-19T04:27:12.435Z,101074.28
2023-05-19T04:30:22.368Z,101044.75
2023-05-19T04:33:25.901Z,101049.97
2023-05-19T04:36:28.556Z,101079.66
2023-05-19T04:39:31.388Z,101081.47
2023-05-19T04:42:34.997Z,101074.00
2023-05-19T04:45:42.614Z,101084.25
2023-05-19T04:48:46.795Z,101098.28
2023-05-19T04:51:50.573Z,101081.19
2023-05-19T04:54:57.340Z,101103.66
2023-05-19T04:58:00.927Z,101104.03
2023-05-19T05:01:04.182Z,101082.66
2023-05-19T05:04:07.358Z,101096.41
2023-05-19T05:07:11.034Z,101083.00
2023-05-19T05:10:14.399Z,101098.78
2023-05-19T05:13:17.283Z,101098.78
2023-05-19T05:16:20.145Z,101100.16
2023-05-19T05:19:23.099Z,101094.31
2023-05-19T05:22:26.156Z,101099.63
2023-05-19T05:25:29.748Z,101111.50
2023-05-19T05:28:32.858Z,101108.91
2023-05-19T05:31:37.037Z,101120.63
2023-05-19T05:34:41.085Z,101112.44
2023-05-19T05:37:43.677Z,101115.38
2023-05-19T05:40:46.339Z,101119.09
2023-05-19T05:43:49.482Z,101106.16
2023-05-19T05:46:52.622Z,101118.66
2023-05-19T05:49:56.534Z,101108.81
2023-05-19T05:53:01.550Z,101103.19
2023-05-19T05:56:04.731Z,101110.72
2023-05-19T05:59:15.586Z,101109.19
2023-05-19T06:02:19.132Z,101108.97
2023-05-19T06:05:22.060Z,101104.38
2023-05-19T06:08:25.766Z,101112.25
2023-05-19T06:11:28.905Z,101120.25
2023-05-19T06:14:34.017Z,101120.09
2023-05-19T06:17:59.249Z,101100.47
2023-05-19T06:21:03.562Z,101133.38
2023-05-19T06:24:07.592Z,101129.63
2023-05-19T06:27:10.212Z,101121.94
2023-05-19T06:30:14.029Z,101132.06
2023-05-19T06:33:34.851Z,101129.50
2023-05-19T06:36:37.448Z,101131.56
2023-05-19T06:39:40.180Z,101138.91
2023-05-19T06:42:42.641Z,101130.66
2023-05-19T06:46:13.182Z,101144.16
2023-05-19T06:49:16.077Z,101135.69
2023-05-19T06:52:22.407Z,101156.78
2023-05-19T06:55:25.213Z,101156.16
2023-05-19T06:58:28.111Z,101150.31
2023-05-19T07:01:31.891Z,101147.91
2023-05-19T07:04:36.716Z,101139.56
2023-05-19T07:07:39.559Z,101167.25
2023-05-19T07:10:46.742Z,101157.41
2023-05-19T07:13:51.533Z,101136.63
2023-05-19T07:17:00.416Z,101152.94
2023-05-19T07:20:06.740Z,101156.69
2023-05-19T07:23:09.396Z,101162.13
2023-05-19T07:26:12.439Z,101157.13
2023-05-19T07:29:15.030Z,101163.84
2023-05-19T07:32:17.595Z,101141.88
2023-05-19T07:35:22.641Z,101153.56
2023-05-19T07:38:25.874Z,101158.94
2023-05-19T07:41:28.572Z,101144.44
2023-05-19T07:44:31.646Z,101150.00
2023-05-19T07:47:34.252Z,101139.50
2023-05-19T07:50:37.167Z,101146.56
2023-05-19T07:53:39.709Z,101140.56
2023-05-19T07:56:42.768Z,101121.19
2023-05-19T07:59:45.699Z,101130.38
2023-05-19T08:02:48.377Z,101116.69
2023-05-19T08:05:51.064Z,101124.69
2023-05-19T08:08:54.312Z,101129.13
2023-05-19T08:11:56.832Z,101113.31
2023-05-19T08:15:01.305Z,101114.22
2023-05-19T08:19:08.660Z,101124.66
2023-05-19T08:22:11.302Z,101117.22
2023-05-19T08:25:13.897Z,101107.03
2023-05-19T08:28:16.508Z,101112.13
2023-05-19T08:31:19.730Z,101116.72
2023-05-19T08:34:22.496Z,101115.94
2023-05-19T08:37:24.997Z,101129.84
2023-05-19T08:40:31.539Z,101117.34
2023-05-19T08:43:34.525Z,101120.66
2023-05-19T08:46:37.187Z,101111.31
2023-05-19T08:49:49.943Z,101127.19
2023-05-19T08:53:01.839Z,101121.44
2023-05-19T08:56:24.976Z,101123.84
2023-05-19T08:59:27.838Z,101096.44
2023-05-19T09:02:31.347Z,101112.63
2023-05-19T09:05:34.700Z,101114.22
2023-05-19T09:08:37.672Z,101113.25
2023-05-19T09:11:40.328Z,101121.00
2023-05-19T09:14:43.007Z,101115.97
2023-05-19T09:17:48.152Z,101117.13
2023-05-19T09:20:51.026Z,101124.78
2023-05-19T09:23:55.845Z,101119.69
2023-05-19T09:27:00.112Z,101113.84
2023-05-19T09:30:09.344Z,101110.56
2023-05-19T09:33:19.589Z,101094.03
2023-05-19T09:36:22.110Z,101093.06
2023-05-19T09:39:25.532Z,101100.41
2023-05-19T09:42:29.887Z,101116.78
2023-05-19T09:45:32.593Z,101121.59
2023-05-19T09:48:36.580Z,101117.66
2023-05-19T09:51:41.862Z,101115.78
2023-05-19T09:54:45.354Z,101106.94
2023-05-19T09:57:47.940Z,101095.28
2023-05-19T10:00:51.078Z,101098.50
2023-05-19T10:03:53.794Z,101098.75
2023-05-19T10:06:59.849Z,101080.16
2023-05-19T10:10:03.325Z,101091.56
2023-05-19T10:13:06.370Z,101080.47
2023-05-19T10:16:10.030Z,101074.13
2023-05-19T10:19:14.284Z,101069.09
2023-05-19T10:22:16.902Z,101078.38
2023-05-19T10:25:20.151Z,101071.72
2023-05-19T10:28:26.677Z,101060.25
2023-05-19T10:31:31.682Z,101066.31
2023-05-19T10:34:37.967Z,101063.56
2023-05-19T10:37:46.584Z,101071.88
2023-05-19T10:41:02.359Z,101072.41
2023-05-19T10:44:32.126Z,101064.66
2023-05-19T10:47:47.296Z,101055.88
2023-05-19T10:51:02.428Z,101062.84
2023-05-19T10:54:16.649Z,101057.69
2023-05-19T11:02:11.229Z,101045.56
2023-05-19T11:05:42.632Z,101050.13
2023-05-19T11:10:02.244Z,101042.75
2023-05-19T11:13:26.263Z,101034.47
2023-05-19T11:17:08.048Z,101032.09
2023-05-19T11:24:35.458Z,101027.09
2023-05-19T11:27:40.693Z,101027.13
2023-05-19T11:31:31.538Z,101019.78
2023-05-19T11:34:40.622Z,101016.81
2023-05-19T11:37:46.836Z,101021.13
2023-05-19T11:40:54.952Z,101017.63
2023-05-19T11:43:58.712Z,101005.00
2023-05-19T11:47:02.450Z,101018.19
2023-05-19T11:50:12.811Z,101010.66
2023-05-19T11:53:17.200Z,101015.66
2023-05-19T11:56:20.501Z,101010.72
2023-05-19T11:59:39.453Z,101008.25
2023-05-19T12:02:43.056Z,101003.75
2023-05-19T12:05:49.177Z,100993.44
2023-05-19T12:09:08.337Z,101006.94
2023-05-19T12:12:33.403Z,101006.09
2023-05-19T12:15:36.906Z,101006.09
2023-05-19T12:18:40.526Z,100990.63
2023-05-19T12:21:43.539Z,100988.28
2023-05-19T12:24:47.327Z,100985.41
2023-05-19T12:27:52.937Z,100974.94
2023-05-19T12:30:58.854Z,100972.38
2023-05-19T12:34:01.991Z,100969.19
2023-05-19T12:37:05.807Z,100971.91
2023-05-19T12:40:09.575Z,100966.81
2023-05-19T12:43:24.183Z,100947.63
2023-05-19T12:46:26.833Z,100964.38
2023-05-19T12:49:29.611Z,100962.25
2023-05-19T12:52:35.461Z,100955.00
2023-05-19T12:55:45.735Z,100937.59
2023-05-19T12:58:54.636Z,100945.31
2023-05-19T13:01:59.850Z,100947.66
2023-05-19T13:05:04.968Z,100940.81
2023-05-19T13:08:09.710Z,100946.75
2023-05-19T13:11:12.306Z,100920.06
2023-05-19T13:14:15.855Z,100934.66
2023-05-19T13:17:19.514Z,100939.84
2023-05-19T13:20:22.161Z,100927.66
2023-05-19T13:23:25.751Z,100925.28
2023-05-19T13:26:28.249Z,100932.38
2023-05-19T13:29:30.828Z,100919.03
2023-05-19T13:32:33.663Z,100908.84
2023-05-19T13:35:39.515Z,100908.28
2023-05-19T13:38:42.019Z,100906.41
2023-05-19T13:41:44.629Z,100898.47
2023-05-19T13:44:47.268Z,100890.84
2023-05-19T13:47:49.786Z,100886.31
2023-05-19T13:50:54.415Z,100895.91
2023-05-19T13:53:56.849Z,100892.59
2023-05-19T13:57:00.263Z,100882.50
2023-05-19T14:00:04.603Z,100885.28
2023-05-19T14:03:19.708Z,100885.34
2023-05-19T14:06:22.575Z,100871.75
2023-05-19T14:09:25.141Z,100890.47
2023-05-19T14:12:38.098Z,100879.41
2023-05-19T14:15:42.226Z,100892.34
2023-05-19T14:18:44.774Z,100885.75
2023-05-19T14:21:47.291Z,100893.81
2023-05-19T14:24:49.766Z,100868.47
2023-05-19T14:27:52.305Z,100877.69
2023-05-19T14:30:54.912Z,100883.69
2023-05-19T14:33:57.419Z,100879.78
2023-05-19T14:37:00.021Z,100877.22
2023-05-19T14:40:04.067Z,100869.63
2023-05-19T14:43:06.923Z,100874.38
2023-05-19T14:46:09.446Z,100871.41
2023-05-19T14:49:11.895Z,100874.63
2023-05-19T14:52:14.436Z,100868.91
2023-05-19T14:55:16.962Z,100855.75
2023-05-19T14:58:27.509Z,100861.84
2023-05-19T15:01:31.186Z,100851.22
2023-05-19T15:04:33.705Z,100845.75
2023-05-19T15:07:36.447Z,100848.59
2023-05-19T15:10:38.984Z,100866.88
2023-05-19T15:13:41.497Z,100852.41
2023-05-19T15:16:44.065Z,100851.88
2023-05-19T15:19:46.710Z,100851.31
2023-05-19T15:22:49.250Z,100838.94
2023-05-19T15:25:53.119Z,100850.91
2023-05-19T15:28:56.090Z,100841.38
2023-05-19T15:31:59.102Z,100829.97
2023-05-19T15:35:01.647Z,100849.00
2023-05-19T15:38:06.385Z,100842.38
2023-05-19T15:41:09.666Z,100833.63
2023-05-19T15:44:12.334Z,100830.63
2023-05-19T15:47:14.812Z,100826.72
2023-05-19T15:50:17.598Z,100829.72
2023-05-19T15:53:20.374Z,100826.56
2023-05-19T15:56:22.862Z,100821.16
2023-05-19T15:59:25.493Z,100825.44
2023-05-19T16:02:28.134Z,100809.63
2023-05-19T16:05:30.901Z,100824.78
2023-05-19T16:08:33.465Z,100827.19
2023-05-19T16:11:36.008Z,100814.66
2023-05-19T16:14:38.559Z,100830.25
2023-05-19T16:17:41.242Z,100831.13
2023-05-19T16:20:44.180Z,100836.72
2023-05-19T16:23:46.645Z,100840.03
2023-05-19T16:26:49.165Z,100822.69
2023-05-19T16:29:51.662Z,100838.78
2023-05-19T16:32:54.685Z,100828.19
2023-05-19T16:35:58.440Z,100831.25
2023-05-19T16:39:00.983Z,100836.13
2023-05-19T16:42:04.676Z,100829.91
2023-05-19T16:45:07.757Z,100835.13
2023-05-19T16:48:10.257Z,100825.72
2023-05-19T16:51:12.875Z,100835.34
2023-05-19T16:54:15.357Z,100825.97
2023-05-19T16:57:19.030Z,100819.72
2023-05-19T17:00:21.471Z,100828.53
2023-05-19T17:03:24.189Z,100832.25
2023-05-19T17:06:26.746Z,100818.50
2023-05-19T17:09:29.184Z,100828.19
2023-05-19T17:12:31.714Z,100806.59
2023-05-19T17:15:35.017Z,100825.25
2023-05-19T17:18:37.624Z,100824.44
2023-05-19T17:21:40.563Z,100833.69
2023-05-19T17:24:43.012Z,100822.66
2023-05-19T17:27:45.517Z,100844.78
2023-05-19T17:30:47.951Z,100826.09
2023-05-19T17:33:51.026Z,100834.75
2023-05-19T17:36:53.480Z,100838.09
2023-05-19T17:39:55.997Z,100830.31
2023-05-19T17:42:58.452Z,100821.78
2023-05-19T17:46:01.331Z,100852.22
2023-05-19T17:49:04.051Z,100842.75
2023-05-19T17:52:07.144Z,100860.34
2023-05-19T17:55:11.304Z,100846.66
2023-05-19T17:58:14.068Z,100853.56
2023-05-19T18:01:17.973Z,100829.25
2023-05-19T18:04:20.872Z,100846.75
2023-05-19T18:07:26.381Z,100854.19
2023-05-19T18:10:29.934Z,100852.31
2023-05-19T18:13:32.372Z,100857.34
2023-05-19T18:16:35.130Z,100859.38
2023-05-19T18:19:37.576Z,100851.38
2023-05-19T18:22:40.039Z,100858.78
2023-05-19T18:25:49.489Z,100864.28
2023-05-19T18:28:51.963Z,100866.88
2023-05-19T18:31:54.504Z,100863.75
2023-05-19T18:34:57.047Z,100863.16
2023-05-19T18:37:59.566Z,100875.44
2023-05-19T18:41:02.527Z,100866.06
2023-05-19T18:44:07.922Z,100881.19
2023-05-19T18:47:10.519Z,100884.75
2023-05-19T18:50:13.221Z,100880.75
2023-05-19T18:53:16.014Z,100887.81
2023-05-19T18:56:28.510Z,100885.56
2023-05-19T18:59:31.161Z,100899.56
2023-05-19T19:02:33.607Z,100903.94
2023-05-19T19:05:36.378Z,100888.25
2023-05-19T19:08:38.842Z,100886.84
2023-05-19T19:11:41.614Z,100890.69
2023-05-19T19:14:44.186Z,100897.19
2023-05-19T19:17:47.068Z,100887.25
2023-05-19T19:20:49.675Z,100882.31
2023-05-19T19:23:56.498Z,100893.63
2023-05-19T19:26:59.025Z,100897.75
2023-05-19T19:30:01.881Z,100900.31
2023-05-19T19:33:04.863Z,100908.00
2023-05-19T19:36:11.907Z,100909.72
2023-05-19T19:39:14.365Z,100902.72
2023-05-19T19:42:17.010Z,100917.34
2023-05-19T19:45:20.909Z,100916.41
2023-05-19T19:48:23.382Z,100916.00
2023-05-19T19:51:26.470Z,100925.75
2023-05-19T19:54:29.090Z,100928.38
2023-05-19T19:57:31.684Z,100929.00
2023-05-19T20:00:34.457Z,100921.50
2023-05-19T20:03:37.517Z,100921.25
2023-05-19T20:06:40.258Z,100925.69
2023-05-19T20:09:42.811Z,100932.44
2023-05-19T20:12:47.239Z,100935.97
2023-05-19T20:15:50.250Z,100933.72
2023-05-19T20:18:52.863Z,100924.56
2023-05-19T20:21:55.442Z,100941.91
2023-05-19T20:24:58.001Z,100946.84
2023-05-19T20:28:02.073Z,100929.56
2023-05-19T20:31:05.151Z,100940.75
2023-05-19T20:34:07.674Z,100923.84
2023-05-19T20:37:10.153Z,100942.13
2023-05-19T20:40:12.877Z,100922.13
2023-05-19T20:43:15.388Z,100926.91
2023-05-19T20:46:17.962Z,100918.91
2023-05-19T20:49:20.639Z,100919.38
2023-05-19T20:52:23.125Z,100923.84
2023-05-19T20:55:25.837Z,100925.69
2023-05-19T20:58:30.321Z,100926.31
2023-05-19T21:01:32.906Z,100914.59
2023-05-19T21:04:36.389Z,100931.53
2023-05-19T21:07:38.957Z,100930.78
2023-05-19T21:10:41.690Z,100932.25
2023-05-19T21:13:44.352Z,100916.75
2023-05-19T21:16:51.340Z,100935.03
2023-05-19T21:19:58.039Z,100909.28
2023-05-19T21:23:00.720Z,100915.91
2023-05-19T21:26:04.325Z,100934.22
2023-05-19T21:29:07.734Z,100917.06
2023-05-19T21:32:10.313Z,100942.44
2023-05-19T21:35:12.874Z,100930.34
2023-05-19T21:38:23.434Z,100917.22
2023-05-19T21:41:26.801Z,100930.91
2023-05-19T21:44:29.392Z,100942.22
2023-05-19T21:47:31.934Z,100927.16
2023-05-19T21:50:37.901Z,100943.34
2023-05-19T21:53:40.367Z,100918.50
2023-05-19T21:56:42.821Z,100927.50
2023-05-19T21:59:45.519Z,100944.03
2023-05-19T22:02:48.187Z,100937.75
2023-05-19T22:05:52.488Z,100941.03
2023-05-19T22:08:55.065Z,100921.25
2023-05-19T22:11:57.646Z,100931.31
2023-05-19T22:15:00.888Z,100906.06
2023-05-19T22:18:03.615Z,100908.47
2023-05-19T22:21:06.768Z,100913.84
2023-05-19T22:24:09.324Z,100905.84
2023-05-19T22:27:12.674Z,100892.75
2023-05-19T22:30:15.791Z,100895.38
2023-05-19T22:33:18.357Z,100890.13
2023-05-19T22:36:21.005Z,100893.00
2023-05-19T22:39:23.487Z,100903.03
2023-05-19T22:42:26.925Z,100899.63
2023-05-19T22:45:29.433Z,100893.69
2023-05-19T22:48:31.906Z,100898.84
2023-05-19T22:51:34.402Z,100883.66
2023-05-19T22:54:38.040Z,100886.75
2023-05-19T22:57:40.545Z,100875.56
2023-05-19T23:00:42.964Z,100875.13
2023-05-19T23:03:45.480Z,100859.69
2023-05-19T23:06:49.975Z,100874.31
2023-05-19T23:09:52.981Z,100873.28
2023-05-19T23:12:55.486Z,100857.28
2023-05-19T23:15:58.500Z,100874.78
2023-05-19T23:19:01.128Z,100865.41
2023-05-19T23:22:03.812Z,100860.03
2023-05-19T23:25:07.866Z,100866.44
2023-05-19T23:28:11.029Z,100854.09
2023-05-19T23:31:13.709Z,100863.19
2023-05-19T23:34:16.376Z,100861.47
2023-05-19T23:37:18.874Z,100884.97
2023-05-19T23:40:21.383Z,100860.97
2023-05-19T23:43:24.094Z,100864.53
2023-05-19T23:46:26.811Z,100871.16
2023-05-19T23:49:29.454Z,100874.44
2023-05-19T23:52:32.796Z,100871.09
2023-05-19T23:55:35.672Z,100867.13
2023-05-19T23:58:38.411Z,100852.03
